Portada
METAR-TAF:

METAR-TAF

Aeroports :

Toyama, Japó

latitud: 36-39N, longitud: 137-11E, altitud: 24 m

Observació

L'informe es va fer fa 8 hores i 1 minuts, a les 12:00 UTC
Vent 5 kt del Oest/Sud-Oest
Temperatura 28°C
Humitat 84%
Pressió 1010 hPa
Visibilitat 10 km o més
Escasses núvols a una alçada de 4000 ft

METAR: RJNT 151200Z 24005KT 9999 FEW040 28/25 Q1010

Hora: 05:01 (20:01 UTC)

Pronòstic

L'informe es va fer fa 2 hores i 56 minuts, a les 17:05 UTC
Pronòstic vàlid del 15 a les 18 UTC al 17 a les 00 UTC
Vent 5 kt del Sud/Sud-Oest
Visibilitat 10 km o més
Escasses núvols a una alçada de 3000 ft
Evolucionant progressivament
l' 16 a les 00 UTC al 16 a les 02 UTC
Vent 10 kt del Oest
Evolucionant progressivament
l' 16 a les 12 UTC al 16 a les 15 UTC
Vent 4 kt del Sud/Sud-Oest

TAF: RJNT 151705Z 1518/1700 20005KT 9999 FEW030 BECMG 1600/1602 28010KT BECMG 1612/1615 20004KT

Observacions i pronòstics meteorològics de més de 4000 aeroports (METAR i TAF).

Les estacions disponibles són els punts grocs i vermells al mapa.

Posi el ratolí al punt desitjat per veure el nom de l'estació.

Feu clic per veure les observacions i els pronòstics meteorològics.

Per canviar el mapa: feu clic els botons verds amb una creu de color negre per apropar; al botó verd amb un guió per allunyar la imatge; o en les fletxes verdes per a mapes adjacents.


METAR-TAF: